sensor_id;sensor_type;location;lat;lon;timestamp;pressure;altitude;pressure_sealevel;temperature
66113;BMP280;52893;52.870;5.822;2022-07-15T00:00:21;102203.31;;;17.56
66113;BMP280;52893;52.870;5.822;2022-07-15T00:02:47;102254.94;;;17.88
66113;BMP280;52893;52.870;5.822;2022-07-15T00:05:13;102256.44;;;17.86
66113;BMP280;52893;52.870;5.822;2022-07-15T00:07:39;102256.44;;;17.86
66113;BMP280;52893;52.870;5.822;2022-07-15T00:10:06;102250.78;;;17.82
66113;BMP280;52893;52.870;5.822;2022-07-15T00:12:43;102241.44;;;17.75
66113;BMP280;52893;52.870;5.822;2022-07-15T00:15:10;102245.94;;;17.79
66113;BMP280;52893;52.870;5.822;2022-07-15T00:17:36;102251.56;;;17.83
66113;BMP280;52893;52.870;5.822;2022-07-15T00:20:03;102242.00;;;17.80
66113;BMP280;52893;52.870;5.822;2022-07-15T00:22:29;102245.91;;;17.67
66113;BMP280;52893;52.870;5.822;2022-07-15T00:24:55;102241.72;;;17.49
66113;BMP280;52893;52.870;5.822;2022-07-15T00:27:21;102252.13;;;17.43
66113;BMP280;52893;52.870;5.822;2022-07-15T00:29:47;102254.53;;;17.33
66113;BMP280;52893;52.870;5.822;2022-07-15T00:32:13;102250.28;;;17.23
66113;BMP280;52893;52.870;5.822;2022-07-15T00:34:39;102249.16;;;17.16
66113;BMP280;52893;52.870;5.822;2022-07-15T00:37:05;102253.44;;;17.13
66113;BMP280;52893;52.870;5.822;2022-07-15T00:39:31;102243.19;;;17.14
66113;BMP280;52893;52.870;5.822;2022-07-15T00:41:58;102250.78;;;17.17
66113;BMP280;52893;52.870;5.822;2022-07-15T00:44:24;102253.69;;;17.20
66113;BMP280;52893;52.870;5.822;2022-07-15T00:46:51;102252.66;;;17.25
66113;BMP280;52893;52.870;5.822;2022-07-15T00:49:17;102238.41;;;17.23
66113;BMP280;52893;52.870;5.822;2022-07-15T00:51:46;102247.41;;;17.32
66113;BMP280;52893;52.870;5.822;2022-07-15T00:54:14;102248.34;;;17.36
66113;BMP280;52893;52.870;5.822;2022-07-15T00:56:49;102250.91;;;17.41
66113;BMP280;52893;52.870;5.822;2022-07-15T00:59:17;102254.56;;;17.45
66113;BMP280;52893;52.870;5.822;2022-07-15T01:01:45;102249.53;;;17.47
66113;BMP280;52893;52.870;5.822;2022-07-15T01:04:12;102247.72;;;17.51
66113;BMP280;52893;52.870;5.822;2022-07-15T01:06:39;102253.69;;;17.53
66113;BMP280;52893;52.870;5.822;2022-07-15T01:09:05;102260.81;;;17.54
66113;BMP280;52893;52.870;5.822;2022-07-15T01:11:31;102256.09;;;17.54
66113;BMP280;52893;52.870;5.822;2022-07-15T01:14:01;102251.38;;;17.55
66113;BMP280;52893;52.870;5.822;2022-07-15T01:16:27;102250.94;;;17.53
66113;BMP280;52893;52.870;5.822;2022-07-15T01:18:54;102257.72;;;17.55
66113;BMP280;52893;52.870;5.822;2022-07-15T01:21:23;102257.59;;;17.52
66113;BMP280;52893;52.870;5.822;2022-07-15T01:23:51;102259.91;;;17.50
66113;BMP280;52893;52.870;5.822;2022-07-15T01:26:41;102248.59;;;17.43
66113;BMP280;52893;52.870;5.822;2022-07-15T01:29:08;102264.34;;;17.42
66113;BMP280;52893;52.870;5.822;2022-07-15T01:31:34;102263.75;;;17.37
66113;BMP280;52893;52.870;5.822;2022-07-15T01:34:01;102260.88;;;17.33
66113;BMP280;52893;52.870;5.822;2022-07-15T01:36:28;102258.97;;;17.25
66113;BMP280;52893;52.870;5.822;2022-07-15T01:38:58;102258.66;;;17.27
66113;BMP280;52893;52.870;5.822;2022-07-15T01:41:24;102248.50;;;17.19
66113;BMP280;52893;52.870;5.822;2022-07-15T01:43:51;102261.41;;;17.27
66113;BMP280;52893;52.870;5.822;2022-07-15T01:46:17;102255.09;;;17.26
66113;BMP280;52893;52.870;5.822;2022-07-15T01:48:45;102258.16;;;17.25
66113;BMP280;52893;52.870;5.822;2022-07-15T01:51:45;102256.13;;;17.22
66113;BMP280;52893;52.870;5.822;2022-07-15T01:54:12;102250.78;;;17.17
66113;BMP280;52893;52.870;5.822;2022-07-15T01:56:39;102253.53;;;17.17
66113;BMP280;52893;52.870;5.822;2022-07-15T01:59:05;102256.63;;;17.15
66113;BMP280;52893;52.870;5.822;2022-07-15T02:01:32;102250.53;;;17.10
66113;BMP280;52893;52.870;5.822;2022-07-15T02:04:03;102248.44;;;17.06
66113;BMP280;52893;52.870;5.822;2022-07-15T02:06:30;102249.56;;;17.05
66113;BMP280;52893;52.870;5.822;2022-07-15T02:08:57;102243.59;;;17.03
66113;BMP280;52893;52.870;5.822;2022-07-15T02:11:25;102243.94;;;17.02
66113;BMP280;52893;52.870;5.822;2022-07-15T02:13:51;102245.41;;;16.99
66113;BMP280;52893;52.870;5.822;2022-07-15T02:16:21;102246.09;;;16.96
66113;BMP280;52893;52.870;5.822;2022-07-15T02:18:49;102242.88;;;16.94
66113;BMP280;52893;52.870;5.822;2022-07-15T02:21:15;102247.09;;;16.92
66113;BMP280;52893;52.870;5.822;2022-07-15T02:23:41;102245.34;;;16.87
66113;BMP280;52893;52.870;5.822;2022-07-15T02:26:07;102213.50;;;16.69
66113;BMP280;52893;52.870;5.822;2022-07-15T02:28:33;102246.47;;;16.86
66113;BMP280;52893;52.870;5.822;2022-07-15T02:30:59;102247.16;;;16.83
66113;BMP280;52893;52.870;5.822;2022-07-15T02:33:26;102246.09;;;16.76
66113;BMP280;52893;52.870;5.822;2022-07-15T02:35:52;102217.34;;;16.56
66113;BMP280;52893;52.870;5.822;2022-07-15T02:38:20;102257.94;;;16.76
66113;BMP280;52893;52.870;5.822;2022-07-15T02:40:48;102260.22;;;16.74
66113;BMP280;52893;52.870;5.822;2022-07-15T02:43:15;102256.97;;;16.72
66113;BMP280;52893;52.870;5.822;2022-07-15T02:45:43;102257.31;;;16.71
66113;BMP280;52893;52.870;5.822;2022-07-15T02:48:13;102225.31;;;16.49
66113;BMP280;52893;52.870;5.822;2022-07-15T02:50:44;102260.72;;;16.68
66113;BMP280;52893;52.870;5.822;2022-07-15T02:53:10;102267.41;;;16.67
66113;BMP280;52893;52.870;5.822;2022-07-15T02:55:39;102265.78;;;16.66
66113;BMP280;52893;52.870;5.822;2022-07-15T02:58:05;102266.09;;;16.64
66113;BMP280;52893;52.870;5.822;2022-07-15T03:00:31;102258.72;;;16.56
66113;BMP280;52893;52.870;5.822;2022-07-15T03:03:02;102259.34;;;16.53
66113;BMP280;52893;52.870;5.822;2022-07-15T03:05:29;102274.56;;;16.59
66113;BMP280;52893;52.870;5.822;2022-07-15T03:07:55;102251.47;;;16.43
66113;BMP280;52893;52.870;5.822;2022-07-15T03:10:23;102271.38;;;16.57
66113;BMP280;52893;52.870;5.822;2022-07-15T03:12:49;102269.75;;;16.56
66113;BMP280;52893;52.870;5.822;2022-07-15T03:15:16;102265.06;;;16.48
66113;BMP280;52893;52.870;5.822;2022-07-15T03:17:42;102281.41;;;16.53
66113;BMP280;52893;52.870;5.822;2022-07-15T03:20:10;102274.31;;;16.52
66113;BMP280;52893;52.870;5.822;2022-07-15T03:22:42;102273.00;;;16.49
66113;BMP280;52893;52.870;5.822;2022-07-15T03:25:08;102276.56;;;16.50
66113;BMP280;52893;52.870;5.822;2022-07-15T03:27:34;102285.97;;;16.49
66113;BMP280;52893;52.870;5.822;2022-07-15T03:30:01;102281.97;;;16.46
66113;BMP280;52893;52.870;5.822;2022-07-15T03:32:27;102282.78;;;16.47
66113;BMP280;52893;52.870;5.822;2022-07-15T03:34:53;102186.44;;;15.83
66113;BMP280;52893;52.870;5.822;2022-07-15T03:37:24;102282.78;;;16.47
66113;BMP280;52893;52.870;5.822;2022-07-15T03:39:51;102276.28;;;16.43
66113;BMP280;52893;52.870;5.822;2022-07-15T03:42:17;102291.47;;;16.49
66113;BMP280;52893;52.870;5.822;2022-07-15T03:44:44;102289.53;;;16.49
66113;BMP280;52893;52.870;5.822;2022-07-15T03:47:10;102283.69;;;16.51
66113;BMP280;52893;52.870;5.822;2022-07-15T03:49:36;102278.84;;;16.48
66113;BMP280;52893;52.870;5.822;2022-07-15T03:52:03;102294.72;;;16.51
66113;BMP280;52893;52.870;5.822;2022-07-15T03:54:29;102297.81;;;16.49
66113;BMP280;52893;52.870;5.822;2022-07-15T03:56:55;102301.38;;;16.50
66113;BMP280;52893;52.870;5.822;2022-07-15T03:59:21;102302.50;;;16.49
66113;BMP280;52893;52.870;5.822;2022-07-15T04:01:48;102302.06;;;16.47
66113;BMP280;52893;52.870;5.822;2022-07-15T04:04:18;102298.31;;;16.43
66113;BMP280;52893;52.870;5.822;2022-07-15T04:06:44;102310.97;;;16.44
66113;BMP280;52893;52.870;5.822;2022-07-15T04:09:10;102311.66;;;16.41
66113;BMP280;52893;52.870;5.822;2022-07-15T04:11:37;102316.19;;;16.37
66113;BMP280;52893;52.870;5.822;2022-07-15T04:14:09;102319.81;;;16.29
66113;BMP280;52893;52.870;5.822;2022-07-15T04:16:36;102315.44;;;16.11
66113;BMP280;52893;52.870;5.822;2022-07-15T04:19:15;102323.44;;;16.03
66113;BMP280;52893;52.870;5.822;2022-07-15T04:21:41;102323.63;;;15.90
66113;BMP280;52893;52.870;5.822;2022-07-15T04:24:07;102336.75;;;15.84
66113;BMP280;52893;52.870;5.822;2022-07-15T04:26:33;102318.50;;;15.71
66113;BMP280;52893;52.870;5.822;2022-07-15T04:28:59;102334.31;;;15.74
66113;BMP280;52893;52.870;5.822;2022-07-15T04:31:25;102321.72;;;15.65
66113;BMP280;52893;52.870;5.822;2022-07-15T04:34:01;102337.41;;;15.64
66113;BMP280;52893;52.870;5.822;2022-07-15T04:36:28;102338.41;;;15.60
66113;BMP280;52893;52.870;5.822;2022-07-15T04:38:54;102332.25;;;15.54
66113;BMP280;52893;52.870;5.822;2022-07-15T04:41:21;102336.47;;;15.43
66113;BMP280;52893;52.870;5.822;2022-07-15T04:43:47;102337.25;;;15.26
66113;BMP280;52893;52.870;5.822;2022-07-15T04:46:15;102345.19;;;15.28
66113;BMP280;52893;52.870;5.822;2022-07-15T04:48:41;102349.69;;;15.24
66113;BMP280;52893;52.870;5.822;2022-07-15T04:51:29;102346.47;;;15.22
66113;BMP280;52893;52.870;5.822;2022-07-15T04:53:56;102351.81;;;15.27
66113;BMP280;52893;52.870;5.822;2022-07-15T04:56:22;102352.47;;;15.32
66113;BMP280;52893;52.870;5.822;2022-07-15T04:58:59;102354.25;;;15.37
66113;BMP280;52893;52.870;5.822;2022-07-15T05:01:26;102359.59;;;15.42
66113;BMP280;52893;52.870;5.822;2022-07-15T05:03:52;102356.38;;;15.48
66113;BMP280;52893;52.870;5.822;2022-07-15T05:06:21;102358.63;;;15.55
66113;BMP280;52893;52.870;5.822;2022-07-15T05:08:47;102354.63;;;15.61
66113;BMP280;52893;52.870;5.822;2022-07-15T05:11:13;102362.69;;;15.66
66113;BMP280;52893;52.870;5.822;2022-07-15T05:13:39;102352.16;;;15.68
66113;BMP280;52893;52.870;5.822;2022-07-15T05:16:07;102357.66;;;15.68
66113;BMP280;52893;52.870;5.822;2022-07-15T05:18:35;102313.75;;;15.46
66113;BMP280;52893;52.870;5.822;2022-07-15T05:21:01;102349.06;;;15.78
66113;BMP280;52893;52.870;5.822;2022-07-15T05:23:31;102346.16;;;15.83
66113;BMP280;52893;52.870;5.822;2022-07-15T05:26:01;102309.53;;;15.74
66113;BMP280;52893;52.870;5.822;2022-07-15T05:28:28;102344.81;;;16.07
66113;BMP280;52893;52.870;5.822;2022-07-15T05:30:54;102347.56;;;16.15
66113;BMP280;52893;52.870;5.822;2022-07-15T05:33:21;102339.94;;;16.21
66113;BMP280;52893;52.870;5.822;2022-07-15T05:35:47;102338.41;;;16.32
66113;BMP280;52893;52.870;5.822;2022-07-15T05:38:14;102344.72;;;16.41
66113;BMP280;52893;52.870;5.822;2022-07-15T05:40:41;102341.59;;;16.51
66113;BMP280;52893;52.870;5.822;2022-07-15T05:43:07;102344.81;;;16.62
66113;BMP280;52893;52.870;5.822;2022-07-15T05:45:37;102339.72;;;16.72
66113;BMP280;52893;52.870;5.822;2022-07-15T05:48:07;102340.28;;;16.86
66113;BMP280;52893;52.870;5.822;2022-07-15T05:50:40;102342.47;;;17.01
66113;BMP280;52893;52.870;5.822;2022-07-15T05:53:08;102341.88;;;17.17
66113;BMP280;52893;52.870;5.822;2022-07-15T05:55:34;102315.91;;;17.18
66113;BMP280;52893;52.870;5.822;2022-07-15T05:58:05;102341.31;;;17.44
66113;BMP280;52893;52.870;5.822;2022-07-15T06:00:32;102344.63;;;17.58
66113;BMP280;52893;52.870;5.822;2022-07-15T06:02:57;102345.81;;;17.69
66113;BMP280;52893;52.870;5.822;2022-07-15T06:05:27;102326.13;;;17.71
66113;BMP280;52893;52.870;5.822;2022-07-15T06:07:59;102348.19;;;17.91
66113;BMP280;52893;52.870;5.822;2022-07-15T06:10:34;102337.97;;;18.04
66113;BMP280;52893;52.870;5.822;2022-07-15T06:13:01;102349.63;;;18.22
66113;BMP280;52893;52.870;5.822;2022-07-15T06:15:28;102346.09;;;18.33
66113;BMP280;52893;52.870;5.822;2022-07-15T06:17:56;102338.59;;;18.46
66113;BMP280;52893;52.870;5.822;2022-07-15T06:20:24;102344.09;;;18.58
66113;BMP280;52893;52.870;5.822;2022-07-15T06:22:50;102316.25;;;18.51
66113;BMP280;52893;52.870;5.822;2022-07-15T06:25:18;102341.69;;;18.81
66113;BMP280;52893;52.870;5.822;2022-07-15T06:27:45;102334.06;;;18.90
66113;BMP280;52893;52.870;5.822;2022-07-15T06:30:11;102333.47;;;18.96
66113;BMP280;52893;52.870;5.822;2022-07-15T06:32:37;102340.59;;;19.09
66113;BMP280;52893;52.870;5.822;2022-07-15T06:35:05;102342.41;;;19.17
66113;BMP280;52893;52.870;5.822;2022-07-15T06:37:32;102337.75;;;19.21
66113;BMP280;52893;52.870;5.822;2022-07-15T06:39:59;102345.59;;;19.32
66113;BMP280;52893;52.870;5.822;2022-07-15T06:42:25;102334.00;;;19.42
66113;BMP280;52893;52.870;5.822;2022-07-15T06:45:01;102351.50;;;19.58
66113;BMP280;52893;52.870;5.822;2022-07-15T06:47:27;102351.41;;;19.70
66113;BMP280;52893;52.870;5.822;2022-07-15T06:49:57;102351.63;;;19.77
66113;BMP280;52893;52.870;5.822;2022-07-15T06:52:26;102355.75;;;19.83
66113;BMP280;52893;52.870;5.822;2022-07-15T06:54:52;102354.66;;;19.88
66113;BMP280;52893;52.870;5.822;2022-07-15T06:57:19;102356.63;;;19.87
66113;BMP280;52893;52.870;5.822;2022-07-15T06:59:45;102362.41;;;19.94
66113;BMP280;52893;52.870;5.822;2022-07-15T07:02:11;102360.78;;;19.93
66113;BMP280;52893;52.870;5.822;2022-07-15T07:04:37;102361.59;;;19.94
66113;BMP280;52893;52.870;5.822;2022-07-15T07:07:04;102363.06;;;19.91
66113;BMP280;52893;52.870;5.822;2022-07-15T07:09:30;102361.25;;;19.95
66113;BMP280;52893;52.870;5.822;2022-07-15T07:11:57;102364.63;;;20.04
66113;BMP280;52893;52.870;5.822;2022-07-15T07:14:23;102357.91;;;20.21
66113;BMP280;52893;52.870;5.822;2022-07-15T07:16:49;102347.44;;;20.46
66113;BMP280;52893;52.870;5.822;2022-07-15T07:19:15;102356.66;;;20.84
66113;BMP280;52893;52.870;5.822;2022-07-15T07:21:41;102361.53;;;21.07
66113;BMP280;52893;52.870;5.822;2022-07-15T07:24:07;102356.44;;;21.12
66113;BMP280;52893;52.870;5.822;2022-07-15T07:26:34;102356.00;;;21.29
66113;BMP280;52893;52.870;5.822;2022-07-15T07:29:00;102321.84;;;21.29
66113;BMP280;52893;52.870;5.822;2022-07-15T07:31:26;102341.94;;;21.61
66113;BMP280;52893;52.870;5.822;2022-07-15T07:33:53;102340.88;;;21.69
66113;BMP280;52893;52.870;5.822;2022-07-15T07:36:20;102341.78;;;21.73
66113;BMP280;52893;52.870;5.822;2022-07-15T07:38:47;102344.97;;;21.75
66113;BMP280;52893;52.870;5.822;2022-07-15T07:41:13;102335.16;;;21.81
66113;BMP280;52893;52.870;5.822;2022-07-15T07:43:39;102347.44;;;21.80
66113;BMP280;52893;52.870;5.822;2022-07-15T07:46:05;102338.22;;;21.76
66113;BMP280;52893;52.870;5.822;2022-07-15T07:48:31;102316.25;;;21.67
66113;BMP280;52893;52.870;5.822;2022-07-15T07:50:58;102340.13;;;21.91
66113;BMP280;52893;52.870;5.822;2022-07-15T07:53:24;102354.25;;;22.05
66113;BMP280;52893;52.870;5.822;2022-07-15T07:55:50;102338.97;;;22.18
66113;BMP280;52893;52.870;5.822;2022-07-15T07:58:17;102336.63;;;22.20
66113;BMP280;52893;52.870;5.822;2022-07-15T08:00:44;102331.53;;;22.26
66113;BMP280;52893;52.870;5.822;2022-07-15T08:03:10;102328.91;;;22.36
66113;BMP280;52893;52.870;5.822;2022-07-15T08:05:36;102334.41;;;22.33
66113;BMP280;52893;52.870;5.822;2022-07-15T08:08:16;102335.41;;;22.21
66113;BMP280;52893;52.870;5.822;2022-07-15T08:10:45;102342.28;;;22.27
66113;BMP280;52893;52.870;5.822;2022-07-15T08:13:11;102344.00;;;22.35
66113;BMP280;52893;52.870;5.822;2022-07-15T08:15:39;102334.78;;;22.31
66113;BMP280;52893;52.870;5.822;2022-07-15T08:18:06;102328.41;;;22.31
66113;BMP280;52893;52.870;5.822;2022-07-15T08:20:32;102346.22;;;22.49
66113;BMP280;52893;52.870;5.822;2022-07-15T08:22:58;102347.34;;;22.74
66113;BMP280;52893;52.870;5.822;2022-07-15T08:25:29;102349.81;;;22.79
66113;BMP280;52893;52.870;5.822;2022-07-15T08:27:56;102361.88;;;22.60
66113;BMP280;52893;52.870;5.822;2022-07-15T08:30:25;102354.16;;;22.50
66113;BMP280;52893;52.870;5.822;2022-07-15T08:32:51;102338.22;;;22.47
66113;BMP280;52893;52.870;5.822;2022-07-15T08:35:17;102324.50;;;22.35
66113;BMP280;52893;52.870;5.822;2022-07-15T08:37:44;102356.81;;;22.69
66113;BMP280;52893;52.870;5.822;2022-07-15T08:40:11;102347.50;;;22.88
66113;BMP280;52893;52.870;5.822;2022-07-15T08:42:38;102361.41;;;23.18
66113;BMP280;52893;52.870;5.822;2022-07-15T08:45:06;102356.16;;;23.46
66113;BMP280;52893;52.870;5.822;2022-07-15T08:47:32;102357.13;;;23.64
66113;BMP280;52893;52.870;5.822;2022-07-15T08:49:58;102350.53;;;23.83
66113;BMP280;52893;52.870;5.822;2022-07-15T08:52:25;102351.41;;;23.94
66113;BMP280;52893;52.870;5.822;2022-07-15T08:54:51;102351.09;;;24.03
66113;BMP280;52893;52.870;5.822;2022-07-15T08:57:18;102340.78;;;24.10
66113;BMP280;52893;52.870;5.822;2022-07-15T08:59:44;102321.53;;;23.94
66113;BMP280;52893;52.870;5.822;2022-07-15T09:02:14;102349.56;;;24.09
66113;BMP280;52893;52.870;5.822;2022-07-15T09:10:59;102312.38;;;23.50
66113;BMP280;52893;52.870;5.822;2022-07-15T09:13:34;102349.63;;;23.72
66113;BMP280;52893;52.870;5.822;2022-07-15T09:16:02;102345.84;;;23.94
66113;BMP280;52893;52.870;5.822;2022-07-15T09:18:30;102344.44;;;24.18
66113;BMP280;52893;52.870;5.822;2022-07-15T09:20:59;102344.78;;;24.13
66113;BMP280;52893;52.870;5.822;2022-07-15T09:23:27;102348.63;;;23.94
66113;BMP280;52893;52.870;5.822;2022-07-15T09:25:57;102345.53;;;24.03
66113;BMP280;52893;52.870;5.822;2022-07-15T09:28:38;102325.28;;;24.20
66113;BMP280;52893;52.870;5.822;2022-07-15T09:31:04;102330.25;;;24.44
66113;BMP280;52893;52.870;5.822;2022-07-15T09:33:57;102340.31;;;24.63
66113;BMP280;52893;52.870;5.822;2022-07-15T09:36:26;102349.94;;;24.76
66113;BMP280;52893;52.870;5.822;2022-07-15T09:39:00;102336.88;;;24.22
66113;BMP280;52893;52.870;5.822;2022-07-15T09:41:29;102326.66;;;23.85
66113;BMP280;52893;52.870;5.822;2022-07-15T09:43:59;102337.19;;;23.62
66113;BMP280;52893;52.870;5.822;2022-07-15T09:46:29;102336.44;;;23.65
66113;BMP280;52893;52.870;5.822;2022-07-15T09:49:04;102327.88;;;23.88
66113;BMP280;52893;52.870;5.822;2022-07-15T09:51:30;102320.06;;;23.60
66113;BMP280;52893;52.870;5.822;2022-07-15T09:53:57;102327.09;;;23.47
66113;BMP280;52893;52.870;5.822;2022-07-15T09:56:23;102325.00;;;23.37
66113;BMP280;52893;52.870;5.822;2022-07-15T09:58:52;102332.13;;;23.31
66113;BMP280;52893;52.870;5.822;2022-07-15T10:01:18;102325.53;;;23.50
66113;BMP280;52893;52.870;5.822;2022-07-15T10:03:44;102323.19;;;23.99
66113;BMP280;52893;52.870;5.822;2022-07-15T10:06:13;102325.66;;;23.60
66113;BMP280;52893;52.870;5.822;2022-07-15T10:08:40;102329.22;;;23.64
66113;BMP280;52893;52.870;5.822;2022-07-15T10:11:09;102326.75;;;24.00
66113;BMP280;52893;52.870;5.822;2022-07-15T10:28:10;102328.75;;;23.15
66113;BMP280;52893;52.870;5.822;2022-07-15T10:30:41;102318.84;;;22.88
66113;BMP280;52893;52.870;5.822;2022-07-15T10:33:19;102309.09;;;23.01
66113;BMP280;52893;52.870;5.822;2022-07-15T10:35:50;102317.38;;;23.30
66113;BMP280;52893;52.870;5.822;2022-07-15T10:38:26;102311.81;;;23.74
66113;BMP280;52893;52.870;5.822;2022-07-15T10:41:11;102309.88;;;24.47
66113;BMP280;52893;52.870;5.822;2022-07-15T10:43:51;102306.72;;;24.45
66113;BMP280;52893;52.870;5.822;2022-07-15T10:54:10;102295.31;;;25.03
66113;BMP280;52893;52.870;5.822;2022-07-15T10:56:41;102303.34;;;25.18
66113;BMP280;52893;52.870;5.822;2022-07-15T10:59:20;102280.63;;;25.38
66113;BMP280;52893;52.870;5.822;2022-07-15T11:02:10;102299.78;;;25.71
66113;BMP280;52893;52.870;5.822;2022-07-15T11:04:36;102291.69;;;26.12
66113;BMP280;52893;52.870;5.822;2022-07-15T11:12:14;102272.09;;;27.39
66113;BMP280;52893;52.870;5.822;2022-07-15T11:17:20;102279.53;;;27.63
66113;BMP280;52893;52.870;5.822;2022-07-15T11:19:48;102275.88;;;27.66
66113;BMP280;52893;52.870;5.822;2022-07-15T11:22:16;102283.47;;;27.69
66113;BMP280;52893;52.870;5.822;2022-07-15T11:24:43;102274.38;;;27.55
66113;BMP280;52893;52.870;5.822;2022-07-15T11:27:09;102272.34;;;27.59
66113;BMP280;52893;52.870;5.822;2022-07-15T11:29:52;102270.09;;;27.40
66113;BMP280;52893;52.870;5.822;2022-07-15T11:32:20;102272.09;;;26.95
66113;BMP280;52893;52.870;5.822;2022-07-15T11:34:52;102273.59;;;26.37
66113;BMP280;52893;52.870;5.822;2022-07-15T11:37:25;102277.25;;;26.27
66113;BMP280;52893;52.870;5.822;2022-07-15T11:40:11;102274.19;;;25.83
66113;BMP280;52893;52.870;5.822;2022-07-15T11:42:37;102270.19;;;25.84
66113;BMP280;52893;52.870;5.822;2022-07-15T11:45:38;102262.13;;;26.07
66113;BMP280;52893;52.870;5.822;2022-07-15T11:48:05;102264.00;;;26.35
66113;BMP280;52893;52.870;5.822;2022-07-15T11:50:33;102259.56;;;26.51
66113;BMP280;52893;52.870;5.822;2022-07-15T11:53:00;102256.66;;;26.69
66113;BMP280;52893;52.870;5.822;2022-07-15T11:55:26;102263.47;;;26.68
66113;BMP280;52893;52.870;5.822;2022-07-15T11:57:52;102254.16;;;26.82
66113;BMP280;52893;52.870;5.822;2022-07-15T12:00:18;102268.59;;;27.32
66113;BMP280;52893;52.870;5.822;2022-07-15T12:03:05;102260.28;;;27.62
66113;BMP280;52893;52.870;5.822;2022-07-15T12:05:31;102252.28;;;27.60
66113;BMP280;52893;52.870;5.822;2022-07-15T12:07:57;102254.69;;;27.95
66113;BMP280;52893;52.870;5.822;2022-07-15T12:10:33;102253.53;;;28.23
66113;BMP280;52893;52.870;5.822;2022-07-15T12:12:59;102261.44;;;28.02
66113;BMP280;52893;52.870;5.822;2022-07-15T12:15:28;102261.09;;;27.62
66113;BMP280;52893;52.870;5.822;2022-07-15T12:17:55;102251.94;;;27.55
66113;BMP280;52893;52.870;5.822;2022-07-15T12:20:22;102258.53;;;27.75
66113;BMP280;52893;52.870;5.822;2022-07-15T12:23:01;102238.13;;;27.30
66113;BMP280;52893;52.870;5.822;2022-07-15T12:25:27;102252.84;;;26.97
66113;BMP280;52893;52.870;5.822;2022-07-15T12:27:53;102258.75;;;26.47
66113;BMP280;52893;52.870;5.822;2022-07-15T12:30:30;102260.91;;;26.08
66113;BMP280;52893;52.870;5.822;2022-07-15T12:33:17;102257.59;;;26.34
66113;BMP280;52893;52.870;5.822;2022-07-15T12:35:43;102250.97;;;26.80
66113;BMP280;52893;52.870;5.822;2022-07-15T12:38:24;102257.38;;;26.77
66113;BMP280;52893;52.870;5.822;2022-07-15T12:40:50;102274.75;;;26.50
66113;BMP280;52893;52.870;5.822;2022-07-15T12:43:17;102261.31;;;26.07
66113;BMP280;52893;52.870;5.822;2022-07-15T12:45:43;102253.41;;;25.77
66113;BMP280;52893;52.870;5.822;2022-07-15T12:48:11;102264.63;;;25.49
66113;BMP280;52893;52.870;5.822;2022-07-15T12:53:18;102269.41;;;25.02
66113;BMP280;52893;52.870;5.822;2022-07-15T12:55:46;102258.94;;;24.78
66113;BMP280;52893;52.870;5.822;2022-07-15T12:58:15;102266.53;;;24.74
66113;BMP280;52893;52.870;5.822;2022-07-15T13:00:43;102273.69;;;24.75
66113;BMP280;52893;52.870;5.822;2022-07-15T13:03:16;102273.75;;;24.82
66113;BMP280;52893;52.870;5.822;2022-07-15T13:05:45;102268.16;;;24.86
66113;BMP280;52893;52.870;5.822;2022-07-15T13:08:17;102272.16;;;24.92
66113;BMP280;52893;52.870;5.822;2022-07-15T13:10:46;102267.38;;;24.92
66113;BMP280;52893;52.870;5.822;2022-07-15T13:13:14;102265.38;;;24.96
66113;BMP280;52893;52.870;5.822;2022-07-15T13:15:41;102272.16;;;24.95
66113;BMP280;52893;52.870;5.822;2022-07-15T13:18:08;102265.38;;;25.03
66113;BMP280;52893;52.870;5.822;2022-07-15T13:20:35;102278.94;;;24.87
66113;BMP280;52893;52.870;5.822;2022-07-15T13:23:01;102254.56;;;24.74
66113;BMP280;52893;52.870;5.822;2022-07-15T13:25:29;102265.31;;;24.75
66113;BMP280;52893;52.870;5.822;2022-07-15T13:27:56;102259.31;;;24.66
66113;BMP280;52893;52.870;5.822;2022-07-15T13:30:23;102265.25;;;24.54
66113;BMP280;52893;52.870;5.822;2022-07-15T13:32:49;102271.66;;;24.54
66113;BMP280;52893;52.870;5.822;2022-07-15T13:35:16;102270.03;;;24.53
66113;BMP280;52893;52.870;5.822;2022-07-15T13:37:42;102274.09;;;24.63
66113;BMP280;52893;52.870;5.822;2022-07-15T13:40:10;102271.28;;;24.70
66113;BMP280;52893;52.870;5.822;2022-07-15T13:42:37;102276.50;;;24.72
66113;BMP280;52893;52.870;5.822;2022-07-15T13:45:05;102282.13;;;24.82
66113;BMP280;52893;52.870;5.822;2022-07-15T13:47:32;102279.78;;;25.02
66113;BMP280;52893;52.870;5.822;2022-07-15T13:49:58;102266.22;;;25.14
66113;BMP280;52893;52.870;5.822;2022-07-15T13:52:53;102268.19;;;25.00
66113;BMP280;52893;52.870;5.822;2022-07-15T13:55:20;102270.19;;;24.92
66113;BMP280;52893;52.870;5.822;2022-07-15T13:57:46;102263.72;;;24.78
66113;BMP280;52893;52.870;5.822;2022-07-15T14:00:15;102258.94;;;24.71
66113;BMP280;52893;52.870;5.822;2022-07-15T14:02:43;102267.69;;;24.66
66113;BMP280;52893;52.870;5.822;2022-07-15T14:05:10;102259.72;;;24.68
66113;BMP280;52893;52.870;5.822;2022-07-15T14:07:38;102260.53;;;24.72
66113;BMP280;52893;52.870;5.822;2022-07-15T14:10:04;102252.94;;;24.69
66113;BMP280;52893;52.870;5.822;2022-07-15T14:12:31;102195.38;;;24.40
66113;BMP280;52893;52.870;5.822;2022-07-15T14:14:57;102233.38;;;24.55
66113;BMP280;52893;52.870;5.822;2022-07-15T14:17:23;102238.13;;;24.58
66113;BMP280;52893;52.870;5.822;2022-07-15T14:19:49;102246.94;;;24.67
66113;BMP280;52893;52.870;5.822;2022-07-15T14:22:15;102243.00;;;24.82
66113;BMP280;52893;52.870;5.822;2022-07-15T14:24:41;102246.16;;;24.84
66113;BMP280;52893;52.870;5.822;2022-07-15T14:27:08;102244.19;;;24.85
66113;BMP280;52893;52.870;5.822;2022-07-15T14:29:35;102243.38;;;24.84
66113;BMP280;52893;52.870;5.822;2022-07-15T14:32:01;102250.22;;;24.90
66113;BMP280;52893;52.870;5.822;2022-07-15T14:34:27;102217.47;;;24.80
66113;BMP280;52893;52.870;5.822;2022-07-15T14:36:53;102216.69;;;24.90
66113;BMP280;52893;52.870;5.822;2022-07-15T14:39:19;102207.47;;;24.72
66113;BMP280;52893;52.870;5.822;2022-07-15T14:41:45;102223.84;;;24.88